Time;durP1;ratioP1;P1;durP2;ratioP2;P2;SDS_P1;SDS_P2;PMS_P1;PMS_P2;Temp;Humidity;BMP_temperature;BMP_pressure;BME280_temperature;BME280_humidity;BME280_pressure;Samples;Min_cycle;Max_cycle;Signal;HPM_P1;HPM_P2
2022/01/17 00:00:13;;;;;;;13.53;3.00;;;8.20;99.90;;;;;;6088105;23;20172;-85
2022/01/17 00:02:40;;;;;;;12.23;2.90;;;8.20;99.90;;;;;;6089255;23;20209;-86
2022/01/17 00:05:09;;;;;;;11.20;2.77;;;8.30;99.90;;;;;;6158877;23;20171;-85
2022/01/17 00:07:36;;;;;;;12.03;2.40;;;8.20;99.90;;;;;;6179679;23;20194;-85
2022/01/17 00:10:04;;;;;;;13.33;2.77;;;8.20;99.90;;;;;;6181139;23;20851;-82
2022/01/17 00:12:35;;;;;;;12.87;2.30;;;8.20;99.90;;;;;;6180313;23;20635;-84
2022/01/17 00:15:01;;;;;;;9.27;2.53;;;8.20;99.90;;;;;;6180663;23;20178;-86
2022/01/17 00:17:34;;;;;;;11.80;2.20;;;8.20;99.90;;;;;;6179427;23;20177;-84
2022/01/17 00:20:09;;;;;;;15.27;2.80;;;8.20;99.90;;;;;;6180888;23;20258;-85
2022/01/17 00:22:36;;;;;;;14.47;2.90;;;8.10;99.90;;;;;;6179683;23;20433;-83
2022/01/17 00:25:04;;;;;;;12.97;2.40;;;8.20;99.90;;;;;;6180052;23;20556;-85
2022/01/17 00:27:31;;;;;;;10.10;2.70;;;8.20;99.90;;;;;;6179093;23;20190;-84
2022/01/17 00:29:58;;;;;;;15.60;2.60;;;8.10;99.90;;;;;;6179881;23;20261;-83
2022/01/17 00:32:25;;;;;;;9.47;2.10;;;8.10;99.90;;;;;;6179063;23;20576;-84
2022/01/17 00:34:53;;;;;;;16.80;3.50;;;8.20;99.90;;;;;;6178645;23;20170;-82
2022/01/17 00:37:19;;;;;;;11.23;2.57;;;8.20;99.90;;;;;;6180679;23;20182;-84
2022/01/17 00:39:46;;;;;;;12.47;2.30;;;8.20;99.90;;;;;;6167768;23;20182;-82
2022/01/17 00:42:13;;;;;;;13.63;2.93;;;8.20;99.90;;;;;;6177749;23;20205;-85
2022/01/17 00:44:40;;;;;;;10.93;2.10;;;8.10;99.90;;;;;;6177512;23;20182;-82
2022/01/17 00:47:07;;;;;;;13.57;2.70;;;8.00;99.90;;;;;;6176932;23;20237;-85
2022/01/17 00:49:34;;;;;;;14.50;3.40;;;8.00;99.90;;;;;;6179352;23;20190;-85
2022/01/17 00:52:04;;;;;;;10.17;2.83;;;8.00;99.90;;;;;;6179695;23;20167;-85
2022/01/17 00:54:31;;;;;;;10.60;3.10;;;8.00;99.90;;;;;;6178286;23;20198;-85
2022/01/17 00:56:58;;;;;;;9.23;2.07;;;7.90;99.90;;;;;;6178623;23;20864;-85
2022/01/17 00:59:25;;;;;;;16.50;2.77;;;7.90;99.90;;;;;;6179532;23;20174;-85
2022/01/17 01:01:51;;;;;;;11.10;2.27;;;7.90;99.90;;;;;;6177928;23;20178;-85
2022/01/17 01:04:18;;;;;;;14.23;2.90;;;7.90;99.90;;;;;;6177627;23;20159;-84
2022/01/17 01:06:45;;;;;;;18.07;3.13;;;7.90;99.90;;;;;;6164516;23;20198;-85
2022/01/17 01:09:13;;;;;;;9.70;2.23;;;7.80;99.90;;;;;;6177929;23;20179;-85
2022/01/17 01:11:40;;;;;;;8.83;2.10;;;7.80;99.90;;;;;;6178172;23;20171;-82
2022/01/17 01:14:07;;;;;;;12.17;2.43;;;7.70;99.90;;;;;;6177997;23;20177;-83
2022/01/17 01:16:35;;;;;;;16.30;2.83;;;7.60;99.90;;;;;;6178251;23;20174;-86
2022/01/17 01:27:55;;;;;;;15.37;2.43;;;7.50;99.90;;;;;;6115588;23;20207;-85
2022/01/17 01:30:25;;;;;;;8.53;2.33;;;7.40;99.90;;;;;;6170899;23;20213;-84
2022/01/17 01:32:55;;;;;;;15.60;2.40;;;7.40;99.90;;;;;;6177907;23;20608;-84
2022/01/17 01:35:25;;;;;;;11.27;2.70;;;7.40;99.90;;;;;;6176976;23;20174;-85
2022/01/17 01:37:52;;;;;;;10.90;2.00;;;7.30;99.90;;;;;;6179187;23;20249;-83
2022/01/17 01:40:21;;;;;;;12.43;2.97;;;7.30;99.90;;;;;;6179519;23;20738;-85
2022/01/17 01:42:51;;;;;;;17.93;3.87;;;7.30;99.90;;;;;;6179843;23;20178;-86
2022/01/17 01:45:19;;;;;;;16.70;2.77;;;7.20;99.90;;;;;;6181138;23;20171;-86
2022/01/17 01:47:47;;;;;;;13.17;2.83;;;7.20;99.90;;;;;;6180307;23;20222;-86
2022/01/17 01:50:14;;;;;;;8.27;3.07;;;7.20;99.90;;;;;;6180490;23;20552;-81
2022/01/17 01:52:42;;;;;;;12.57;2.40;;;7.10;99.90;;;;;;6180519;23;20722;-85
2022/01/17 01:55:14;;;;;;;13.30;2.47;;;7.10;99.90;;;;;;6180739;23;20170;-84
2022/01/17 01:57:44;;;;;;;13.50;3.37;;;7.10;99.90;;;;;;6179398;23;20167;-85
2022/01/17 02:00:13;;;;;;;9.57;2.20;;;7.10;99.90;;;;;;6180282;23;20175;-84
2022/01/17 02:02:40;;;;;;;11.07;2.20;;;7.20;99.90;;;;;;6180260;23;20216;-85
2022/01/17 02:05:08;;;;;;;18.47;2.90;;;7.20;99.90;;;;;;6179219;23;20185;-85
2022/01/17 02:07:36;;;;;;;14.63;3.20;;;7.10;99.90;;;;;;6180399;23;20194;-83
2022/01/17 02:10:04;;;;;;;17.37;2.90;;;7.10;99.90;;;;;;6190434;23;20167;-84
2022/01/17 02:12:32;;;;;;;20.97;3.53;;;7.20;99.90;;;;;;6186268;23;20179;-82
2022/01/17 02:15:01;;;;;;;16.40;2.33;;;7.20;99.90;;;;;;6181092;23;20178;-86
2022/01/17 02:17:30;;;;;;;15.83;3.13;;;7.20;99.90;;;;;;6178638;23;20170;-83
2022/01/17 02:20:07;;;;;;;15.60;2.53;;;7.20;99.90;;;;;;6176246;23;20225;-85
2022/01/17 02:22:34;;;;;;;11.17;3.13;;;7.20;99.90;;;;;;6179215;23;20202;-83
2022/01/17 02:25:01;;;;;;;15.50;3.50;;;7.30;99.90;;;;;;6183812;23;20174;-86
2022/01/17 02:27:28;;;;;;;17.27;3.87;;;7.30;99.90;;;;;;6180855;23;20200;-85
2022/01/17 02:29:55;;;;;;;17.53;3.17;;;7.30;99.90;;;;;;6181279;23;20171;-85
2022/01/17 02:32:21;;;;;;;15.37;4.30;;;7.30;99.90;;;;;;6179142;23;20174;-86
2022/01/17 02:34:48;;;;;;;12.80;2.90;;;7.30;99.90;;;;;;6179946;23;20166;-83
2022/01/17 02:37:18;;;;;;;20.77;3.83;;;7.30;99.90;;;;;;6179777;23;20177;-90
2022/01/17 02:39:45;;;;;;;24.90;3.30;;;7.30;99.90;;;;;;6179880;23;20179;-83
2022/01/17 02:42:15;;;;;;;21.80;3.47;;;7.30;99.90;;;;;;6180054;23;20190;-84
2022/01/17 02:44:45;;;;;;;17.43;4.13;;;7.40;99.90;;;;;;6179880;23;20193;-87
2022/01/17 02:47:15;;;;;;;14.00;3.13;;;7.40;99.90;;;;;;6179567;23;20195;-82
2022/01/17 02:49:42;;;;;;;16.13;3.53;;;7.30;99.90;;;;;;6180825;23;20186;-82
2022/01/17 02:52:09;;;;;;;14.40;3.50;;;7.40;99.90;;;;;;6179594;23;20449;-81
2022/01/17 02:54:38;;;;;;;14.13;3.23;;;7.40;99.90;;;;;;6180685;23;20178;-84
2022/01/17 02:57:07;;;;;;;19.80;4.30;;;7.40;99.90;;;;;;6181892;23;20608;-83
2022/01/17 02:59:33;;;;;;;15.77;3.73;;;7.40;99.90;;;;;;6179201;23;20722;-86
2022/01/17 03:02:00;;;;;;;19.10;4.03;;;7.40;99.90;;;;;;6181398;23;20209;-84
2022/01/17 03:04:28;;;;;;;12.30;2.73;;;7.40;99.90;;;;;;6181237;23;20170;-86
2022/01/17 03:06:55;;;;;;;14.17;3.63;;;7.40;99.90;;;;;;6181957;23;20647;-81
2022/01/17 03:09:23;;;;;;;15.83;3.53;;;7.40;99.90;;;;;;6182287;23;20213;-84
2022/01/17 03:11:51;;;;;;;19.03;4.10;;;7.40;99.90;;;;;;6182277;23;20182;-85
2022/01/17 03:14:18;;;;;;;20.57;4.47;;;7.40;99.90;;;;;;6181900;23;20170;-86
2022/01/17 03:16:47;;;;;;;18.23;3.13;;;7.50;99.90;;;;;;6181520;23;20175;-84
2022/01/17 03:19:14;;;;;;;17.60;4.97;;;7.50;99.90;;;;;;6183177;23;20171;-81
2022/01/17 03:21:41;;;;;;;14.80;4.00;;;7.50;99.90;;;;;;6180941;23;20566;-81
2022/01/17 03:24:08;;;;;;;17.07;4.70;;;7.50;99.90;;;;;;6180907;23;20178;-85
2022/01/17 03:26:35;;;;;;;13.17;3.73;;;7.50;99.90;;;;;;6180033;23;20687;-86
2022/01/17 03:29:04;;;;;;;22.13;4.37;;;7.50;99.90;;;;;;6180791;23;20253;-82
2022/01/17 03:31:31;;;;;;;14.10;3.60;;;7.50;99.90;;;;;;6180534;23;20174;-82
2022/01/17 03:33:58;;;;;;;15.27;3.90;;;7.50;99.90;;;;;;6180723;23;20167;-86
2022/01/17 03:36:25;;;;;;;17.23;4.30;;;7.50;99.90;;;;;;6180049;23;20182;-84
2022/01/17 03:38:53;;;;;;;22.47;4.67;;;7.50;99.90;;;;;;6181923;23;20175;-84
2022/01/17 03:41:20;;;;;;;19.57;4.33;;;7.50;99.90;;;;;;6180497;23;20191;-83
2022/01/17 03:43:47;;;;;;;14.10;3.93;;;7.50;99.90;;;;;;6180909;23;20194;-87
2022/01/17 03:46:15;;;;;;;15.93;5.43;;;7.50;99.90;;;;;;6180769;23;20175;-85
2022/01/17 03:48:42;;;;;;;24.43;4.80;;;7.50;99.90;;;;;;6179661;23;20194;-84
2022/01/17 03:51:09;;;;;;;12.50;3.37;;;7.50;99.90;;;;;;6179454;23;21026;-83
2022/01/17 03:53:36;;;;;;;19.80;4.83;;;7.50;99.90;;;;;;6178529;23;20174;-83
2022/01/17 03:56:03;;;;;;;12.20;3.80;;;7.50;99.90;;;;;;6181746;23;20220;-82
2022/01/17 03:58:30;;;;;;;25.43;5.17;;;7.60;99.90;;;;;;6181016;23;20174;-84
2022/01/17 04:00:58;;;;;;;21.63;5.40;;;7.50;99.90;;;;;;6181340;23;20171;-84
2022/01/17 04:03:27;;;;;;;14.67;4.33;;;7.50;99.90;;;;;;6181761;23;20210;-81
2022/01/17 04:05:54;;;;;;;18.87;4.83;;;7.60;99.90;;;;;;6181126;23;20328;-83
2022/01/17 04:08:22;;;;;;;19.50;5.33;;;7.60;99.90;;;;;;6181114;23;20194;-87
2022/01/17 04:10:48;;;;;;;16.20;5.33;;;7.60;99.90;;;;;;6180733;23;20177;-85
2022/01/17 04:13:15;;;;;;;18.70;5.50;;;7.60;99.90;;;;;;6182006;23;20194;-84
2022/01/17 04:15:42;;;;;;;23.73;5.40;;;7.50;99.90;;;;;;6182013;23;20178;-85
2022/01/17 04:18:11;;;;;;;18.37;5.23;;;7.50;99.90;;;;;;6182095;23;20167;-85
2022/01/17 04:20:41;;;;;;;17.53;5.97;;;7.50;99.90;;;;;;6181644;23;20516;-82
2022/01/17 04:23:10;;;;;;;22.13;6.27;;;7.50;99.90;;;;;;6181900;23;20420;-85
2022/01/17 04:25:39;;;;;;;22.50;5.60;;;7.50;99.90;;;;;;6181599;23;20182;-85
2022/01/17 04:28:08;;;;;;;17.37;5.80;;;7.50;99.90;;;;;;6180777;23;20191;-85
2022/01/17 04:30:35;;;;;;;16.70;5.10;;;7.50;99.90;;;;;;6181020;23;20193;-83
2022/01/17 04:33:02;;;;;;;19.37;6.10;;;7.50;99.90;;;;;;6182075;23;20171;-85
2022/01/17 04:35:29;;;;;;;16.17;4.80;;;7.60;99.90;;;;;;6181645;23;20185;-82
2022/01/17 04:38:01;;;;;;;20.97;5.30;;;7.60;99.90;;;;;;6181399;23;20623;-82
2022/01/17 04:40:34;;;;;;;27.27;6.10;;;7.60;99.90;;;;;;6180931;23;20187;-83
2022/01/17 04:43:03;;;;;;;22.57;6.37;;;7.60;99.90;;;;;;6181575;23;20194;-86
2022/01/17 04:45:30;;;;;;;17.87;6.23;;;7.60;99.90;;;;;;6180614;23;20210;-84
2022/01/17 04:47:56;;;;;;;17.80;6.77;;;7.60;99.90;;;;;;6180185;23;20218;-84
2022/01/17 04:50:25;;;;;;;15.87;7.50;;;7.60;99.90;;;;;;6181127;23;20167;-85
2022/01/17 04:52:54;;;;;;;26.87;9.07;;;7.60;99.90;;;;;;6180946;23;20174;-83
2022/01/17 04:55:23;;;;;;;20.27;9.03;;;7.60;99.90;;;;;;6179210;23;20210;-83
2022/01/17 04:57:50;;;;;;;16.67;8.40;;;7.60;99.90;;;;;;6180646;23;20250;-83
2022/01/17 05:00:20;;;;;;;18.23;9.90;;;7.60;99.90;;;;;;6181249;23;20176;-83
2022/01/17 05:02:47;;;;;;;21.73;10.60;;;7.60;99.90;;;;;;6180343;23;20209;-86
2022/01/17 05:05:14;;;;;;;20.83;9.97;;;7.60;99.90;;;;;;6179827;23;20179;-85
2022/01/17 05:07:42;;;;;;;23.60;11.57;;;7.60;99.90;;;;;;6179869;23;20183;-85
2022/01/17 05:10:11;;;;;;;26.77;12.50;;;7.60;99.90;;;;;;6181729;23;20183;-84
2022/01/17 05:12:40;;;;;;;25.30;13.00;;;7.60;99.90;;;;;;6180868;23;20175;-85
2022/01/17 05:15:16;;;;;;;22.73;11.73;;;7.60;99.90;;;;;;6180622;23;20635;-83
2022/01/17 05:17:57;;;;;;;25.17;12.50;;;7.60;99.90;;;;;;6180219;23;20216;-85
2022/01/17 05:20:24;;;;;;;20.00;11.43;;;7.50;99.90;;;;;;6179490;23;20241;-82
2022/01/17 05:22:51;;;;;;;17.93;11.43;;;7.50;99.90;;;;;;6179715;23;20181;-86
2022/01/17 05:25:18;;;;;;;20.20;10.73;;;7.50;99.90;;;;;;6175960;23;20194;-81
2022/01/17 05:27:47;;;;;;;26.23;10.87;;;7.50;99.90;;;;;;6180605;23;20421;-88
2022/01/17 05:30:16;;;;;;;21.40;10.33;;;7.50;99.90;;;;;;6181257;23;20170;-85
2022/01/17 05:32:43;;;;;;;18.63;9.90;;;7.40;99.90;;;;;;6181370;23;20469;-86
2022/01/17 05:35:11;;;;;;;19.47;8.00;;;7.40;99.90;;;;;;6180941;23;20175;-85
2022/01/17 05:37:38;;;;;;;17.67;6.90;;;7.40;99.90;;;;;;6180579;23;20540;-85
2022/01/17 05:40:07;;;;;;;20.00;7.20;;;7.40;99.90;;;;;;6180743;23;20205;-86
2022/01/17 05:42:34;;;;;;;14.13;6.77;;;7.40;99.90;;;;;;6181213;23;20198;-86
2022/01/17 05:45:03;;;;;;;20.07;7.90;;;7.30;99.90;;;;;;6180681;23;20928;-85
2022/01/17 05:47:29;;;;;;;22.43;7.73;;;7.30;99.90;;;;;;6181973;23;20722;-85
2022/01/17 05:49:57;;;;;;;21.60;7.43;;;7.30;99.90;;;;;;6181466;23;20198;-86
2022/01/17 05:52:24;;;;;;;17.27;5.97;;;7.30;99.90;;;;;;6181043;23;20557;-86
2022/01/17 05:54:52;;;;;;;24.53;8.23;;;7.30;99.90;;;;;;6181801;23;20175;-86
2022/01/17 05:57:19;;;;;;;19.87;7.60;;;7.30;99.90;;;;;;6181137;23;20206;-84
2022/01/17 05:59:46;;;;;;;25.90;7.17;;;7.20;99.90;;;;;;6181524;23;20166;-86
2022/01/17 06:02:14;;;;;;;25.57;7.37;;;7.30;99.90;;;;;;6181363;23;20202;-86
2022/01/17 06:04:41;;;;;;;19.30;6.13;;;7.20;99.90;;;;;;6180863;23;20171;-83
2022/01/17 06:07:08;;;;;;;18.37;6.00;;;7.20;99.90;;;;;;6181377;23;20174;-82
2022/01/17 06:09:35;;;;;;;23.03;6.53;;;7.20;99.90;;;;;;6180577;23;20202;-86
2022/01/17 06:12:03;;;;;;;17.80;6.43;;;7.20;99.90;;;;;;6181063;23;20179;-85
2022/01/17 06:14:31;;;;;;;37.70;6.53;;;7.10;99.90;;;;;;6180800;23;20179;-84
2022/01/17 06:16:58;;;;;;;21.13;5.80;;;7.20;99.90;;;;;;6180253;23;20186;-82
2022/01/17 06:19:26;;;;;;;14.23;4.83;;;7.20;99.90;;;;;;6181241;23;20182;-85
2022/01/17 06:21:53;;;;;;;19.53;5.40;;;7.20;99.90;;;;;;6180297;23;20182;-82
2022/01/17 06:24:20;;;;;;;26.00;5.10;;;7.20;99.90;;;;;;6179491;23;20167;-86
2022/01/17 06:26:47;;;;;;;23.13;5.90;;;7.20;99.90;;;;;;6179822;23;20163;-83
2022/01/17 06:29:15;;;;;;;20.87;4.73;;;7.20;99.90;;;;;;6179971;23;20194;-81
2022/01/17 06:31:44;;;;;;;19.47;4.30;;;7.20;99.90;;;;;;6179401;23;20479;-85
2022/01/17 06:34:12;;;;;;;22.77;5.60;;;7.20;99.90;;;;;;6181157;23;20421;-86
2022/01/17 06:36:42;;;;;;;24.73;6.13;;;7.30;99.90;;;;;;6179939;23;20181;-84
2022/01/17 06:39:09;;;;;;;23.00;5.80;;;7.20;99.90;;;;;;6180883;23;20281;-85
2022/01/17 06:41:37;;;;;;;25.87;6.23;;;7.30;99.90;;;;;;6182283;23;20201;-85
2022/01/17 06:44:04;;;;;;;19.03;4.93;;;7.40;99.90;;;;;;6182209;23;20179;-81
2022/01/17 06:46:31;;;;;;;22.77;4.93;;;7.40;99.90;;;;;;6180932;23;20171;-85
2022/01/17 06:48:58;;;;;;;22.80;4.67;;;7.40;99.90;;;;;;6181294;23;20195;-83
2022/01/17 06:51:25;;;;;;;17.73;5.00;;;7.40;99.90;;;;;;6181261;23;20174;-84
2022/01/17 06:53:53;;;;;;;27.13;5.97;;;7.50;99.90;;;;;;6182216;23;20182;-83
2022/01/17 06:56:20;;;;;;;15.23;4.90;;;7.50;99.90;;;;;;6177992;23;20201;-85
2022/01/17 06:58:47;;;;;;;21.57;5.03;;;7.50;99.90;;;;;;6169385;23;20462;-86
2022/01/17 07:01:15;;;;;;;18.87;4.83;;;7.50;99.90;;;;;;6182574;23;20181;-84
2022/01/17 07:03:42;;;;;;;25.37;6.83;;;7.50;99.90;;;;;;6182071;23;20206;-85
2022/01/17 07:06:09;;;;;;;19.53;5.00;;;7.50;99.90;;;;;;6182022;23;20179;-86
2022/01/17 07:08:36;;;;;;;23.00;5.27;;;7.60;99.90;;;;;;6182411;23;20472;-86
2022/01/17 07:11:04;;;;;;;26.83;5.73;;;7.60;99.90;;;;;;6182822;23;20812;-85
2022/01/17 07:13:31;;;;;;;25.80;5.73;;;7.70;99.90;;;;;;6179658;23;20163;-83
2022/01/17 07:15:58;;;;;;;21.47;5.13;;;7.70;99.90;;;;;;6182225;23;20175;-84
2022/01/17 07:18:43;;;;;;;20.80;5.17;;;7.70;99.90;;;;;;6174573;23;20173;-90
2022/01/17 07:21:10;;;;;;;27.90;5.13;;;7.70;99.90;;;;;;6180611;23;20178;-82
2022/01/17 07:23:37;;;;;;;17.57;4.70;;;7.70;99.90;;;;;;6181904;23;20204;-90
2022/01/17 07:26:05;;;;;;;24.97;5.23;;;7.80;99.90;;;;;;6182403;23;20178;-83
2022/01/17 07:28:32;;;;;;;18.43;5.37;;;7.80;99.90;;;;;;6180966;23;20174;-85
2022/01/17 07:30:59;;;;;;;21.07;5.20;;;7.70;99.90;;;;;;6182571;23;20183;-85
2022/01/17 07:33:28;;;;;;;25.90;4.67;;;7.70;99.90;;;;;;6181645;23;20548;-90
2022/01/17 07:35:55;;;;;;;20.53;5.00;;;7.80;99.90;;;;;;6180235;23;20210;-82
2022/01/17 07:38:22;;;;;;;22.83;4.60;;;7.80;99.90;;;;;;6183409;23;20245;-87
2022/01/17 07:40:49;;;;;;;16.37;5.33;;;7.80;99.90;;;;;;6180258;23;20226;-90
2022/01/17 07:43:17;;;;;;;23.23;4.47;;;7.80;99.90;;;;;;6182229;23;20175;-88
2022/01/17 07:45:55;;;;;;;26.47;5.73;;;7.80;99.90;;;;;;6182117;23;20177;-86
2022/01/17 07:48:56;;;;;;;23.00;6.00;;;7.90;99.90;;;;;;6181558;23;20485;-90
2022/01/17 07:51:24;;;;;;;23.20;4.57;;;7.80;99.90;;;;;;6181447;23;20178;-86
2022/01/17 07:53:51;;;;;;;25.50;4.80;;;7.80;99.90;;;;;;6180792;23;20179;-84
2022/01/17 07:56:18;;;;;;;23.07;5.13;;;7.80;99.90;;;;;;6180358;23;20186;-88
2022/01/17 07:58:46;;;;;;;26.67;4.70;;;7.90;99.90;;;;;;6178839;23;20167;-82
2022/01/17 08:01:13;;;;;;;24.30;6.40;;;7.90;99.90;;;;;;6179066;23;20171;-83
2022/01/17 08:03:40;;;;;;;18.30;4.80;;;8.00;99.90;;;;;;6179968;23;20211;-83
2022/01/17 08:06:07;;;;;;;22.20;4.67;;;7.90;99.90;;;;;;6180650;23;20178;-84
2022/01/17 08:08:34;;;;;;;18.73;4.17;;;7.90;99.90;;;;;;6177861;23;20175;-83
2022/01/17 08:11:01;;;;;;;28.03;4.40;;;8.00;99.90;;;;;;6179748;23;20171;-85
2022/01/17 08:13:28;;;;;;;25.27;4.87;;;7.90;99.90;;;;;;6180858;23;20179;-84
2022/01/17 08:15:57;;;;;;;27.03;4.70;;;7.90;99.90;;;;;;6180386;23;20716;-85
2022/01/17 08:18:24;;;;;;;30.33;5.07;;;8.00;99.90;;;;;;6180201;23;20167;-81
2022/01/17 08:20:51;;;;;;;22.93;4.87;;;8.00;99.90;;;;;;6180305;23;20190;-82
2022/01/17 08:23:18;;;;;;;22.57;5.13;;;8.00;99.90;;;;;;6179580;23;20177;-85
2022/01/17 08:25:45;;;;;;;21.73;4.00;;;8.00;99.90;;;;;;6179321;23;20175;-85
2022/01/17 08:28:13;;;;;;;27.87;5.67;;;8.10;99.90;;;;;;6176812;23;20174;-86
2022/01/17 08:30:40;;;;;;;21.20;4.33;;;8.10;99.90;;;;;;6153911;23;20211;-81
2022/01/17 08:33:09;;;;;;;24.80;4.90;;;8.10;99.90;;;;;;6182309;23;20197;-87
2022/01/17 08:35:35;;;;;;;26.97;5.10;;;8.10;99.90;;;;;;6180768;23;20167;-85
2022/01/17 08:38:02;;;;;;;28.10;6.77;;;8.20;99.90;;;;;;6180775;23;20187;-80
2022/01/17 08:40:29;;;;;;;19.50;5.43;;;8.20;99.90;;;;;;6181331;23;20579;-84
2022/01/17 08:42:56;;;;;;;23.37;4.17;;;8.20;99.90;;;;;;6180756;23;20885;-81
2022/01/17 08:45:24;;;;;;;23.17;4.80;;;8.30;99.90;;;;;;6180500;23;20545;-86
2022/01/17 08:47:52;;;;;;;30.40;6.37;;;8.30;99.90;;;;;;6180785;23;20253;-83
2022/01/17 08:50:22;;;;;;;27.43;4.73;;;8.20;99.90;;;;;;6180279;23;20201;-87
2022/01/17 08:52:49;;;;;;;21.83;4.33;;;8.20;99.90;;;;;;6179765;23;20167;-81
2022/01/17 08:55:17;;;;;;;19.90;3.77;;;8.30;99.90;;;;;;6179992;23;20171;-83
2022/01/17 08:57:44;;;;;;;18.70;3.90;;;8.30;99.90;;;;;;6178560;23;20263;-90
2022/01/17 09:00:15;;;;;;;23.77;5.43;;;8.30;99.90;;;;;;6179631;23;20175;-80
2022/01/17 09:02:42;;;;;;;19.83;5.30;;;8.40;99.90;;;;;;6180248;23;20206;-90
2022/01/17 09:05:10;;;;;;;22.67;4.37;;;8.40;99.90;;;;;;6179831;23;21055;-83
2022/01/17 09:07:39;;;;;;;25.43;4.77;;;8.40;99.90;;;;;;6180395;23;20175;-86
2022/01/17 09:10:06;;;;;;;22.00;4.37;;;8.40;99.90;;;;;;6178997;23;20208;-88
2022/01/17 09:12:33;;;;;;;27.03;5.10;;;8.50;99.90;;;;;;6177381;23;20175;-85
2022/01/17 09:15:00;;;;;;;29.00;4.57;;;8.50;99.90;;;;;;6180384;23;20174;-88
2022/01/17 09:17:27;;;;;;;22.83;4.90;;;8.60;99.90;;;;;;6180424;23;20586;-90
2022/01/17 09:19:54;;;;;;;26.30;4.57;;;8.60;99.90;;;;;;6180674;23;20175;-83
2022/01/17 09:22:21;;;;;;;30.73;4.80;;;8.70;99.90;;;;;;6179863;23;20194;-92
2022/01/17 09:24:50;;;;;;;26.37;5.07;;;8.70;99.90;;;;;;6184140;23;20174;-86
2022/01/17 09:27:17;;;;;;;23.60;4.63;;;8.70;99.90;;;;;;6181514;23;20205;-86
2022/01/17 09:29:44;;;;;;;21.43;5.63;;;8.80;99.90;;;;;;6180471;23;20191;-84
2022/01/17 09:32:12;;;;;;;21.83;5.30;;;8.80;99.90;;;;;;6178557;23;20181;-83
2022/01/17 09:34:40;;;;;;;22.37;4.77;;;8.80;99.90;;;;;;6178643;23;20453;-85
2022/01/17 09:37:07;;;;;;;22.03;3.67;;;8.80;99.90;;;;;;6180440;23;20194;-83
2022/01/17 09:39:35;;;;;;;16.50;4.13;;;8.80;99.90;;;;;;6178672;23;20245;-85
2022/01/17 09:42:04;;;;;;;21.87;4.80;;;8.80;99.90;;;;;;6178858;23;20191;-85
2022/01/17 09:44:31;;;;;;;20.83;4.40;;;8.80;99.90;;;;;;6179003;23;20177;-82
2022/01/17 09:46:58;;;;;;;17.17;3.60;;;8.80;99.90;;;;;;6180803;23;20185;-83
2022/01/17 09:49:33;;;;;;;19.63;4.30;;;8.80;99.90;;;;;;6175880;23;20194;-81
2022/01/17 09:52:08;;;;;;;21.73;4.50;;;8.80;99.90;;;;;;6179446;23;20171;-83
2022/01/17 09:54:37;;;;;;;21.67;4.10;;;8.80;99.90;;;;;;6179532;23;20213;-86
2022/01/17 09:57:08;;;;;;;27.57;5.30;;;8.70;99.90;;;;;;6180819;23;20398;-85
2022/01/17 09:59:37;;;;;;;26.57;4.23;;;8.80;99.90;;;;;;6177110;23;20170;-87
2022/01/17 10:02:05;;;;;;;19.90;5.30;;;8.80;99.90;;;;;;6176605;23;20207;-86
2022/01/17 10:04:33;;;;;;;18.20;3.60;;;8.80;99.90;;;;;;6180324;23;20171;-88
2022/01/17 10:07:01;;;;;;;24.43;5.23;;;8.80;99.90;;;;;;6180664;23;20167;-82
2022/01/17 10:09:29;;;;;;;22.70;4.87;;;8.80;99.90;;;;;;6180320;23;20199;-86
2022/01/17 10:12:03;;;;;;;18.37;4.83;;;8.90;99.90;;;;;;6180133;23;20232;-86
2022/01/17 10:14:36;;;;;;;24.27;4.73;;;8.90;99.90;;;;;;6180242;23;20197;-85
2022/01/17 10:17:08;;;;;;;18.80;4.20;;;8.90;99.90;;;;;;6179053;23;20665;-88
2022/01/17 10:19:35;;;;;;;26.27;4.00;;;9.00;99.90;;;;;;6180238;23;20170;-88
2022/01/17 10:22:08;;;;;;;29.67;5.03;;;9.00;99.90;;;;;;6178656;23;20179;-86
2022/01/17 10:24:43;;;;;;;17.67;4.13;;;9.00;99.90;;;;;;6178051;23;20166;-87
2022/01/17 10:27:44;;;;;;;17.83;4.00;;;9.10;99.90;;;;;;6179760;23;20234;-86
2022/01/17 10:30:43;;;;;;;23.63;4.73;;;9.10;99.90;;;;;;6179512;23;20201;-86
2022/01/17 10:35:57;;;;;;;26.03;5.27;;;9.20;99.90;;;;;;6179600;23;20193;-90
2022/01/17 10:38:27;;;;;;;21.73;4.80;;;9.30;99.90;;;;;;6179118;23;20205;-85
2022/01/17 10:40:57;;;;;;;19.80;4.47;;;9.30;99.90;;;;;;6179483;23;20244;-85
2022/01/17 10:43:26;;;;;;;23.80;4.40;;;9.30;99.90;;;;;;6179696;23;20183;-85
2022/01/17 10:45:57;;;;;;;21.50;4.33;;;9.30;99.90;;;;;;6181054;23;20229;-86
2022/01/17 10:48:30;;;;;;;24.97;5.43;;;9.40;99.90;;;;;;6180181;23;20167;-84
2022/01/17 10:50:57;;;;;;;21.40;4.13;;;9.40;99.90;;;;;;6179649;23;20194;-86
2022/01/17 10:53:24;;;;;;;25.83;5.30;;;9.40;99.90;;;;;;6179233;23;20193;-84
2022/01/17 10:55:53;;;;;;;23.07;4.57;;;9.50;99.90;;;;;;6180035;23;20481;-82
2022/01/17 10:58:25;;;;;;;25.53;4.70;;;9.50;99.90;;;;;;6179455;23;20175;-84
2022/01/17 11:00:55;;;;;;;21.03;4.87;;;9.50;99.90;;;;;;6179270;23;20171;-82
2022/01/17 11:03:23;;;;;;;16.40;4.27;;;9.50;99.90;;;;;;6179102;23;20639;-83
2022/01/17 11:05:53;;;;;;;19.87;4.03;;;9.60;99.90;;;;;;6178932;23;20171;-81
2022/01/17 11:08:24;;;;;;;26.63;5.03;;;9.60;99.90;;;;;;6179638;23;20182;-86
2022/01/17 11:10:53;;;;;;;26.50;4.57;;;9.60;99.90;;;;;;6180389;23;20186;-85
2022/01/17 11:13:21;;;;;;;21.37;4.67;;;9.60;99.90;;;;;;6179197;23;20262;-86
2022/01/17 11:15:55;;;;;;;18.83;4.43;;;9.60;99.90;;;;;;6180149;23;20174;-86
2022/01/17 11:18:26;;;;;;;24.43;5.43;;;9.60;99.90;;;;;;6178948;23;20166;-84
2022/01/17 11:20:56;;;;;;;19.93;4.93;;;9.60;99.90;;;;;;6178769;23;20166;-85
2022/01/17 11:23:23;;;;;;;23.50;5.30;;;9.50;99.90;;;;;;6179122;23;20174;-86
2022/01/17 11:25:54;;;;;;;22.80;5.47;;;9.60;99.90;;;;;;6180415;23;20174;-86
2022/01/17 11:28:23;;;;;;;20.93;3.93;;;9.60;99.90;;;;;;6180760;23;20254;-85
2022/01/17 11:30:52;;;;;;;21.10;3.77;;;9.70;99.90;;;;;;6180843;23;20201;-84
2022/01/17 11:33:20;;;;;;;18.47;4.70;;;9.70;99.90;;;;;;6178103;23;20671;-84
2022/01/17 11:35:51;;;;;;;25.17;5.37;;;9.70;99.90;;;;;;6179780;23;20185;-84
2022/01/17 11:38:22;;;;;;;18.73;5.03;;;9.70;99.90;;;;;;6180211;23;20182;-87
2022/01/17 11:40:50;;;;;;;23.27;4.70;;;9.80;99.90;;;;;;6180547;23;20250;-87
2022/01/17 11:43:20;;;;;;;18.50;3.97;;;9.80;99.90;;;;;;6182416;23;20485;-85
2022/01/17 11:45:48;;;;;;;24.47;5.00;;;9.80;99.90;;;;;;6182427;23;20194;-82
2022/01/17 11:48:25;;;;;;;23.20;4.57;;;9.80;99.90;;;;;;6180530;23;20171;-84
2022/01/17 11:50:54;;;;;;;25.97;5.87;;;9.80;99.90;;;;;;6181052;23;20232;-85
2022/01/17 11:53:43;;;;;;;26.87;5.23;;;9.80;99.90;;;;;;6181185;23;20596;-81
2022/01/17 11:56:11;;;;;;;24.27;5.00;;;9.90;99.90;;;;;;6181308;23;20167;-83
2022/01/17 11:58:41;;;;;;;16.73;5.37;;;9.80;99.90;;;;;;6181493;23;20178;-85
2022/01/17 12:01:26;;;;;;;24.23;5.43;;;9.90;99.90;;;;;;6181768;23;20159;-83
2022/01/17 12:03:55;;;;;;;19.23;4.60;;;9.90;99.90;;;;;;6181410;23;20211;-84
2022/01/17 12:06:25;;;;;;;22.03;4.50;;;9.90;99.90;;;;;;6180901;23;20764;-86
2022/01/17 12:09:20;;;;;;;25.67;4.37;;;9.90;99.90;;;;;;6181929;23;20481;-84
2022/01/17 12:11:48;;;;;;;29.60;4.93;;;9.90;99.90;;;;;;6180437;23;20191;-83
2022/01/17 12:14:23;;;;;;;22.97;5.30;;;9.90;99.90;;;;;;6181372;23;20179;-83
2022/01/17 12:16:50;;;;;;;23.27;5.13;;;9.90;99.90;;;;;;6180617;23;20170;-84
2022/01/17 12:19:18;;;;;;;26.83;5.17;;;9.90;99.90;;;;;;6181169;23;20250;-88
2022/01/17 12:21:53;;;;;;;21.50;4.60;;;9.90;99.90;;;;;;6180143;23;20178;-84
2022/01/17 12:24:47;;;;;;;24.53;5.67;;;9.90;99.90;;;;;;6180803;23;20496;-84
2022/01/17 12:27:18;;;;;;;21.80;3.97;;;9.90;99.90;;;;;;6179057;23;20171;-83
2022/01/17 12:29:51;;;;;;;24.77;4.93;;;10.00;99.90;;;;;;6180384;23;20180;-85
2022/01/17 12:32:47;;;;;;;27.57;5.67;;;10.00;99.90;;;;;;6182009;23;20166;-89
2022/01/17 12:35:21;;;;;;;23.40;4.23;;;10.00;99.90;;;;;;6181101;23;20241;-89
2022/01/17 12:37:51;;;;;;;25.50;5.93;;;10.00;99.90;;;;;;6179912;23;20166;-87
2022/01/17 12:40:21;;;;;;;23.83;5.40;;;10.00;99.90;;;;;;6180944;23;20177;-85
2022/01/17 12:42:57;;;;;;;26.80;4.50;;;10.10;99.90;;;;;;6181249;23;20178;-87
2022/01/17 12:45:27;;;;;;;31.50;5.10;;;10.10;99.90;;;;;;6180121;23;20536;-87
2022/01/17 12:47:55;;;;;;;22.87;4.83;;;10.10;99.90;;;;;;6178723;23;20167;-89
2022/01/17 12:50:27;;;;;;;22.03;4.17;;;10.20;99.90;;;;;;6177609;23;20803;-83
2022/01/17 12:52:55;;;;;;;23.67;4.90;;;10.20;99.90;;;;;;6179605;23;20230;-85
2022/01/17 12:55:24;;;;;;;22.63;4.40;;;10.20;99.90;;;;;;6177342;23;20631;-81
2022/01/17 12:57:51;;;;;;;25.53;4.57;;;10.20;99.90;;;;;;6177532;23;20186;-82
2022/01/17 13:00:20;;;;;;;23.57;4.73;;;10.20;99.90;;;;;;6177640;23;20171;-82
2022/01/17 13:02:50;;;;;;;26.10;6.57;;;10.20;99.90;;;;;;6165842;23;20654;-83
2022/01/17 13:05:23;;;;;;;26.13;5.33;;;10.20;99.90;;;;;;6174460;23;20166;-82